createdAt,value
2019-01-15T00:02:00.907Z,3.73
2019-01-15T00:04:28.685Z,3.30
2019-01-15T00:06:56.476Z,3.40
2019-01-15T00:09:23.972Z,3.30
2019-01-15T00:11:51.608Z,3.10
2019-01-15T00:14:19.100Z,3.23
2019-01-15T00:16:46.569Z,3.13
2019-01-15T00:19:14.051Z,3.07
2019-01-15T00:21:41.608Z,3.30
2019-01-15T00:24:09.107Z,3.70
2019-01-15T00:26:36.801Z,3.00
2019-01-15T00:29:04.692Z,2.63
2019-01-15T00:31:32.264Z,3.03
2019-01-15T00:33:59.982Z,2.93
2019-01-15T00:36:27.503Z,2.70
2019-01-15T00:38:55.134Z,2.30
2019-01-15T00:41:22.685Z,3.43
2019-01-15T00:43:50.413Z,2.80
2019-01-15T00:46:18.060Z,2.90
2019-01-15T00:48:45.600Z,3.03
2019-01-15T00:51:13.163Z,3.10
2019-01-15T00:53:41.682Z,3.17
2019-01-15T00:56:09.259Z,3.27
2019-01-15T00:58:37.083Z,2.67
2019-01-15T01:01:04.798Z,2.40
2019-01-15T01:03:32.340Z,3.47
2019-01-15T01:05:59.976Z,2.80
2019-01-15T01:08:27.606Z,2.90
2019-01-15T01:10:55.231Z,2.47
2019-01-15T01:13:23.014Z,2.40
2019-01-15T01:15:50.520Z,2.43
2019-01-15T01:18:18.000Z,2.27
2019-01-15T01:20:45.496Z,2.20
2019-01-15T01:23:13.037Z,2.30
2019-01-15T01:25:40.561Z,3.17
2019-01-15T01:28:08.135Z,2.90
2019-01-15T01:30:35.608Z,2.13
2019-01-15T01:33:03.239Z,2.50
2019-01-15T01:35:30.856Z,2.13
2019-01-15T01:37:58.388Z,1.97
2019-01-15T01:40:26.030Z,2.40
2019-01-15T01:42:53.874Z,2.20
2019-01-15T01:45:21.643Z,2.03
2019-01-15T01:47:49.113Z,2.90
2019-01-15T01:50:17.161Z,3.43
2019-01-15T01:52:45.357Z,2.13
2019-01-15T01:55:14.232Z,2.10
2019-01-15T01:57:41.987Z,2.00
2019-01-15T02:00:13.049Z,3.10
2019-01-15T02:02:40.936Z,2.20
2019-01-15T02:05:08.917Z,1.60
2019-01-15T02:07:37.078Z,2.57
2019-01-15T02:10:06.909Z,2.20
2019-01-15T02:12:36.954Z,1.80
2019-01-15T02:15:05.570Z,1.60
2019-01-15T02:17:33.120Z,1.97
2019-01-15T02:20:02.094Z,1.60
2019-01-15T02:22:29.966Z,2.03
2019-01-15T02:24:57.492Z,2.10
2019-01-15T02:27:25.424Z,2.87
2019-01-15T02:29:52.984Z,1.80
2019-01-15T02:32:20.513Z,1.60
2019-01-15T02:34:48.420Z,2.00
2019-01-15T02:37:16.050Z,2.37
2019-01-15T02:39:43.686Z,2.00
2019-01-15T02:42:11.386Z,2.27
2019-01-15T02:44:39.033Z,2.50
2019-01-15T02:47:06.812Z,2.57
2019-01-15T02:49:34.859Z,1.97
2019-01-15T02:52:02.529Z,2.07
2019-01-15T02:54:30.374Z,2.23
2019-01-15T02:56:58.269Z,2.60
2019-01-15T02:59:26.030Z,2.63
2019-01-15T03:01:53.675Z,2.07
2019-01-15T03:04:21.305Z,2.67
2019-01-15T03:06:48.963Z,2.00
2019-01-15T03:09:16.450Z,2.30
2019-01-15T03:11:44.061Z,2.53
2019-01-15T03:14:11.659Z,2.27
2019-01-15T03:16:39.641Z,2.47
2019-01-15T03:19:07.260Z,2.60
2019-01-15T03:21:34.911Z,1.90
2019-01-15T03:24:02.409Z,2.50
2019-01-15T03:26:40.532Z,2.30
2019-01-15T03:29:08.109Z,2.50
2019-01-15T03:31:35.690Z,2.03
2019-01-15T03:34:03.694Z,1.73
2019-01-15T03:36:32.176Z,1.80
2019-01-15T03:39:00.253Z,2.13
2019-01-15T03:41:27.900Z,1.73
2019-01-15T03:43:56.153Z,2.50
2019-01-15T03:46:23.834Z,1.60
2019-01-15T03:48:51.418Z,2.00
2019-01-15T03:51:19.157Z,2.10
2019-01-15T03:53:47.367Z,2.50
2019-01-15T03:56:15.112Z,2.27
2019-01-15T03:58:42.822Z,2.47
2019-01-15T04:01:10.631Z,2.50
2019-01-15T04:03:40.777Z,2.23
2019-01-15T04:06:08.642Z,2.80
2019-01-15T04:08:36.408Z,1.80
2019-01-15T04:11:04.159Z,1.77
2019-01-15T04:13:32.298Z,4.83
2019-01-15T04:16:00.022Z,2.70
2019-01-15T04:18:27.719Z,2.87
2019-01-15T04:20:55.439Z,2.53
2019-01-15T04:23:23.060Z,2.43
2019-01-15T04:25:50.991Z,3.27
2019-01-15T04:28:18.504Z,3.67
2019-01-15T04:30:46.208Z,3.60
2019-01-15T04:33:14.093Z,3.53
2019-01-15T04:35:41.691Z,4.10
2019-01-15T04:38:09.417Z,3.20
2019-01-15T04:40:37.044Z,3.30
2019-01-15T04:43:04.641Z,3.13
2019-01-15T04:45:32.497Z,3.70
2019-01-15T04:48:00.243Z,3.57
2019-01-15T04:50:27.914Z,4.77
2019-01-15T04:53:01.293Z,4.53
2019-01-15T04:55:31.252Z,4.27
2019-01-15T04:57:58.827Z,2.57
2019-01-15T05:00:26.491Z,2.87
2019-01-15T05:02:55.931Z,3.13
2019-01-15T05:05:23.427Z,2.90
2019-01-15T05:07:51.252Z,3.80
2019-01-15T05:10:18.780Z,3.43
2019-01-15T05:12:46.755Z,3.37
2019-01-15T05:15:14.676Z,5.20
2019-01-15T05:17:42.369Z,4.17
2019-01-15T05:20:11.650Z,3.63
2019-01-15T05:22:39.302Z,4.47
2019-01-15T05:25:10.104Z,4.30
2019-01-15T05:27:37.811Z,4.43
2019-01-15T05:30:08.857Z,4.17
2019-01-15T05:32:36.481Z,3.47
2019-01-15T05:35:04.485Z,4.13
2019-01-15T05:37:32.296Z,3.20
2019-01-15T05:40:00.285Z,3.77
2019-01-15T05:42:28.086Z,4.03
2019-01-15T05:44:57.605Z,4.17
2019-01-15T05:47:26.383Z,4.07
2019-01-15T05:49:54.271Z,3.63
2019-01-15T05:52:22.103Z,3.90
2019-01-15T05:54:49.589Z,3.70
2019-01-15T05:57:17.988Z,3.90
2019-01-15T05:59:48.424Z,3.43
2019-01-15T06:02:16.265Z,3.93
2019-01-15T06:04:44.970Z,4.20
2019-01-15T06:07:13.127Z,4.20
2019-01-15T06:09:41.064Z,3.07
2019-01-15T06:12:08.818Z,3.60
2019-01-15T06:14:37.249Z,2.60
2019-01-15T06:17:05.172Z,3.80
2019-01-15T06:19:32.879Z,4.40
2019-01-15T06:22:00.725Z,4.20
2019-01-15T06:24:28.859Z,3.80
2019-01-15T06:26:56.729Z,4.27
2019-01-15T06:29:24.339Z,4.00
2019-01-15T06:31:57.825Z,4.20
2019-01-15T06:34:25.311Z,4.30
2019-01-15T06:36:53.188Z,3.57
2019-01-15T06:39:21.340Z,3.97
2019-01-15T06:41:49.427Z,3.73
2019-01-15T06:44:17.394Z,3.70
2019-01-15T06:46:46.144Z,4.53
2019-01-15T06:49:14.433Z,4.20
2019-01-15T06:51:42.759Z,3.57
2019-01-15T06:54:10.804Z,4.13
2019-01-15T06:56:39.134Z,3.80
2019-01-15T06:59:06.851Z,3.80
2019-01-15T07:01:34.752Z,3.20
2019-01-15T07:04:02.492Z,5.30
2019-01-15T07:06:30.100Z,3.67
2019-01-15T07:08:57.643Z,3.20
2019-01-15T07:11:25.525Z,4.53
2019-01-15T07:13:57.108Z,5.50
2019-01-15T07:16:22.968Z,3.60
2019-01-15T07:18:50.646Z,3.00
2019-01-15T07:21:18.231Z,4.10
2019-01-15T07:23:46.123Z,3.33
2019-01-15T07:26:15.222Z,3.87
2019-01-15T07:28:43.484Z,3.60
2019-01-15T07:31:11.223Z,3.23
2019-01-15T07:33:38.845Z,4.00
2019-01-15T07:36:06.405Z,3.37
2019-01-15T07:38:33.967Z,3.70
2019-01-15T07:41:01.850Z,3.50
2019-01-15T07:43:29.376Z,3.27
2019-01-15T07:45:57.310Z,2.90
2019-01-15T07:48:25.333Z,3.53
2019-01-15T07:50:52.937Z,3.93
2019-01-15T07:53:20.484Z,3.50
2019-01-15T07:55:47.999Z,4.03
2019-01-15T07:58:15.713Z,3.30
2019-01-15T08:00:43.530Z,3.60
2019-01-15T08:03:11.291Z,3.07
2019-01-15T08:05:39.188Z,2.90
2019-01-15T08:08:06.904Z,3.70
2019-01-15T08:10:35.295Z,3.30
2019-01-15T08:13:02.851Z,2.43
2019-01-15T08:15:30.648Z,3.37
2019-01-15T08:17:59.124Z,3.40
2019-01-15T08:20:26.671Z,3.50
2019-01-15T08:22:54.420Z,2.40
2019-01-15T08:25:25.038Z,2.77
2019-01-15T08:28:47.688Z,2.40
2019-01-15T08:31:15.153Z,2.33
2019-01-15T08:33:42.672Z,3.07
2019-01-15T08:36:10.490Z,1.73
2019-01-15T08:38:38.068Z,2.60
2019-01-15T08:41:05.552Z,2.40
2019-01-15T08:43:33.086Z,3.10
2019-01-15T08:46:00.744Z,3.57
2019-01-15T08:48:29.702Z,2.37
2019-01-15T08:50:57.474Z,1.80
2019-01-15T08:53:25.847Z,2.03
2019-01-15T08:55:56.780Z,2.03
2019-01-15T08:58:24.346Z,2.13
2019-01-15T09:01:12.179Z,2.10
2019-01-15T09:03:39.757Z,2.00
2019-01-15T09:06:11.707Z,2.30
2019-01-15T09:09:31.597Z,2.63
2019-01-15T09:12:04.135Z,2.63
2019-01-15T09:14:32.556Z,2.40
2019-01-15T09:17:00.069Z,1.90
2019-01-15T09:19:27.993Z,2.13
2019-01-15T09:21:58.932Z,2.87
2019-01-15T09:24:27.735Z,1.77
2019-01-15T09:27:16.103Z,2.00
2019-01-15T09:29:44.211Z,2.00
2019-01-15T09:32:13.078Z,1.80
2019-01-15T09:34:42.820Z,1.70
2019-01-15T09:37:12.349Z,2.23
2019-01-15T09:39:40.193Z,1.77
2019-01-15T09:42:11.195Z,2.47
2019-01-15T09:44:38.909Z,1.73
2019-01-15T09:47:07.360Z,2.70
2019-01-15T09:49:36.335Z,2.47
2019-01-15T09:52:04.308Z,2.83
2019-01-15T09:54:34.909Z,2.73
2019-01-15T09:57:02.643Z,2.27
2019-01-15T09:59:30.481Z,2.50
2019-01-15T10:01:58.014Z,2.10
2019-01-15T10:04:25.553Z,2.53
2019-01-15T10:06:53.110Z,2.20
2019-01-15T10:09:20.592Z,2.93
2019-01-15T10:11:48.905Z,3.10
2019-01-15T10:14:16.377Z,2.20
2019-01-15T10:16:44.121Z,3.23
2019-01-15T10:19:11.573Z,2.20
2019-01-15T10:21:39.874Z,2.93
2019-01-15T10:24:08.063Z,2.00
2019-01-15T10:26:35.784Z,2.40
2019-01-15T10:29:03.654Z,2.67
2019-01-15T10:32:11.802Z,2.37
2019-01-15T10:34:40.370Z,3.10
2019-01-15T10:37:08.156Z,2.50
2019-01-15T10:39:35.859Z,2.90
2019-01-15T10:42:04.073Z,2.17
2019-01-15T10:44:31.849Z,2.57
2019-01-15T10:47:00.055Z,2.60
2019-01-15T10:49:27.930Z,2.77
2019-01-15T10:51:56.228Z,3.03
2019-01-15T10:55:12.703Z,2.93
2019-01-15T10:58:00.407Z,2.37
2019-01-15T11:00:28.329Z,2.80
2019-01-15T11:02:55.856Z,3.00
2019-01-15T11:05:55.952Z,2.80
2019-01-15T11:08:24.204Z,2.47
2019-01-15T11:10:51.774Z,2.30
2019-01-15T11:13:19.360Z,2.37
2019-01-15T11:15:48.006Z,3.67
2019-01-15T11:18:15.983Z,2.70
2019-01-15T11:24:27.816Z,2.63
2019-01-15T11:26:55.373Z,2.50
2019-01-15T11:29:22.885Z,2.47
2019-01-15T11:31:50.410Z,2.83
2019-01-15T11:34:17.884Z,2.60
2019-01-15T11:36:45.351Z,2.73
2019-01-15T11:39:17.654Z,2.97
2019-01-15T11:41:43.000Z,3.00
2019-01-15T11:44:17.578Z,3.33
2019-01-15T11:46:45.139Z,3.37
2019-01-15T11:49:15.015Z,2.70
2019-01-15T11:51:42.602Z,2.63
2019-01-15T11:54:10.190Z,3.30
2019-01-15T11:56:38.243Z,2.67
2019-01-15T11:59:52.715Z,3.60
2019-01-15T12:02:31.652Z,10.50
2019-01-15T12:05:24.568Z,8.57
2019-01-15T12:08:10.183Z,3.40
2019-01-15T12:10:56.027Z,9.20
2019-01-15T12:13:46.174Z,31.43
2019-01-15T12:16:59.381Z,23.47
2019-01-15T12:19:36.677Z,12.17
2019-01-15T12:22:38.781Z,7.00
2019-01-15T12:25:32.776Z,4.20
2019-01-15T12:28:25.578Z,7.50
2019-01-15T12:31:18.718Z,4.10
2019-01-15T12:34:14.976Z,3.50
2019-01-15T12:36:53.389Z,3.90
2019-01-15T12:39:39.288Z,4.00
2019-01-15T12:42:35.488Z,3.50
2019-01-15T12:45:27.382Z,4.17
2019-01-15T12:48:10.383Z,4.20
2019-01-15T12:50:51.116Z,3.53
2019-01-15T12:53:35.264Z,15.93
2019-01-15T12:56:31.009Z,3.07
2019-01-15T12:59:26.974Z,3.70
2019-01-15T13:02:16.728Z,3.80
2019-01-15T13:05:03.796Z,3.70
2019-01-15T13:07:49.709Z,3.90
2019-01-15T13:10:36.887Z,4.00
2019-01-15T13:13:29.651Z,11.07
2019-01-15T13:16:22.514Z,4.53
2019-01-15T13:19:18.638Z,4.93
2019-01-15T13:21:57.401Z,5.70
2019-01-15T13:24:53.458Z,5.50
2019-01-15T13:27:41.142Z,8.83
2019-01-15T13:30:28.455Z,3.27
2019-01-15T13:33:15.800Z,3.70
2019-01-15T13:36:15.248Z,3.77
2019-01-15T13:38:55.872Z,3.60
2019-01-15T13:41:58.310Z,3.77
2019-01-15T13:44:41.345Z,3.50
2019-01-15T13:47:43.788Z,4.00
2019-01-15T13:50:30.137Z,3.43
2019-01-15T13:53:17.992Z,3.43
2019-01-15T13:55:55.112Z,4.47
2019-01-15T13:58:42.871Z,4.23
2019-01-15T14:01:29.375Z,3.30
2019-01-15T14:04:15.093Z,4.03
2019-01-15T14:06:56.192Z,3.90
2019-01-15T14:09:43.167Z,3.97
2019-01-15T14:12:36.968Z,3.37
2019-01-15T14:15:16.590Z,3.90
2019-01-15T14:18:09.937Z,4.13
2019-01-15T14:20:59.257Z,4.47
2019-01-15T14:23:41.412Z,4.43
2019-01-15T14:26:52.696Z,4.50
2019-01-15T14:29:42.536Z,4.47
2019-01-15T14:32:28.574Z,4.67
2019-01-15T14:35:14.441Z,5.43
2019-01-15T14:38:02.621Z,4.50
2019-01-15T14:40:55.721Z,4.00
2019-01-15T14:44:16.329Z,4.43
2019-01-15T14:47:15.616Z,5.57
2019-01-15T14:50:01.707Z,4.53
2019-01-15T14:52:47.833Z,6.03
2019-01-15T14:55:37.785Z,5.23
2019-01-15T14:58:27.963Z,5.30
2019-01-15T15:01:20.891Z,4.70
2019-01-15T15:04:06.780Z,5.33
2019-01-15T15:07:08.881Z,5.50
2019-01-15T15:09:59.239Z,5.63
2019-01-15T15:12:52.541Z,6.00
2019-01-15T15:15:28.930Z,7.10
2019-01-15T15:18:08.506Z,5.63
2019-01-15T15:20:58.532Z,5.27
2019-01-15T15:23:42.179Z,5.67
2019-01-15T15:26:20.281Z,4.70
2019-01-15T15:29:06.128Z,5.13
2019-01-15T15:32:08.503Z,4.90
2019-01-15T15:35:04.761Z,4.87
2019-01-15T15:37:50.266Z,4.90
2019-01-15T15:40:40.623Z,5.80
2019-01-15T15:43:27.968Z,5.27
2019-01-15T15:46:21.386Z,4.90
2019-01-15T15:49:06.857Z,4.87
2019-01-15T15:52:02.988Z,4.20
2019-01-15T15:54:44.644Z,5.70
2019-01-15T15:57:32.482Z,4.63
2019-01-15T16:00:18.300Z,4.60
2019-01-15T16:03:23.656Z,5.60
2019-01-15T18:01:10.641Z,6.80
2019-01-15T18:04:13.809Z,5.97
2019-01-15T18:08:08.387Z,6.07
2019-01-15T18:44:36.998Z,6.33
2019-01-15T18:47:26.755Z,6.63
2019-01-15T18:50:35.998Z,7.70
2019-01-15T18:53:59.019Z,6.70
2019-01-15T19:00:20.937Z,6.80
2019-01-15T19:03:32.629Z,8.10
2019-01-15T19:06:18.383Z,6.97
2019-01-15T19:16:39.689Z,7.00
2019-01-15T19:19:32.714Z,7.23
2019-01-15T19:22:29.788Z,8.20
2019-01-15T19:25:16.291Z,7.10
2019-01-15T19:28:03.640Z,6.40
2019-01-15T19:30:49.293Z,7.60
2019-01-15T19:33:36.741Z,6.60
2019-01-15T19:36:29.059Z,6.97
2019-01-15T19:39:24.469Z,5.40
2019-01-15T19:42:09.844Z,6.53
2019-01-15T19:45:05.856Z,6.80
2019-01-15T19:47:55.722Z,6.93
2019-01-15T20:29:21.598Z,6.60
2019-01-15T20:32:10.542Z,7.03
2019-01-15T20:34:58.898Z,6.10
2019-01-15T20:38:17.924Z,6.20
2019-01-15T20:41:22.253Z,6.60
2019-01-15T20:44:42.375Z,7.37
2019-01-15T20:47:39.333Z,6.20
2019-01-15T20:50:37.536Z,6.27
2019-01-15T20:53:26.769Z,6.80
2019-01-15T20:56:29.732Z,7.70
2019-01-15T20:59:15.952Z,7.00
2019-01-15T21:02:09.149Z,7.67
2019-01-15T21:05:02.056Z,7.10
2019-01-15T21:07:48.529Z,6.30
2019-01-15T21:10:38.826Z,7.87
2019-01-15T21:13:25.995Z,6.93
2019-01-15T21:16:13.281Z,7.33
2019-01-15T21:19:06.676Z,8.30
2019-01-15T21:21:52.065Z,7.60
2019-01-15T21:24:45.056Z,6.53
2019-01-15T21:27:36.073Z,6.27
2019-01-15T21:30:20.100Z,6.47
2019-01-15T21:33:06.583Z,6.40
2019-01-15T21:36:05.685Z,7.20
2019-01-15T21:39:00.956Z,6.53
2019-01-15T21:41:59.319Z,6.07
2019-01-15T21:44:49.157Z,5.93
2019-01-15T21:47:40.095Z,7.37
2019-01-15T21:50:22.868Z,6.10
2019-01-15T21:53:14.295Z,6.30
2019-01-15T21:55:59.707Z,6.27
2019-01-15T21:58:49.297Z,5.83
2019-01-15T22:01:48.291Z,5.30
2019-01-15T22:04:25.648Z,4.97
2019-01-15T22:07:19.135Z,6.33
2019-01-15T22:09:55.922Z,5.20
2019-01-15T22:12:34.785Z,5.80
2019-01-15T22:15:27.609Z,6.10
2019-01-15T22:18:13.112Z,5.63
2019-01-15T22:20:54.827Z,5.57
2019-01-15T22:23:51.000Z,5.30
2019-01-15T22:26:38.264Z,5.60
2019-01-15T22:29:21.495Z,5.53
2019-01-15T22:32:02.618Z,5.43
2019-01-15T22:34:55.628Z,6.37
2019-01-15T22:37:45.384Z,6.50
2019-01-15T22:40:38.340Z,6.60
2019-01-15T22:43:21.268Z,8.10
2019-01-15T22:46:17.252Z,6.77
2019-01-15T22:49:16.321Z,7.10
2019-01-15T22:52:06.279Z,6.97
2019-01-15T22:54:46.917Z,7.43
2019-01-15T22:57:35.508Z,6.87
2019-01-15T23:00:29.216Z,7.07
2019-01-15T23:03:20.713Z,6.50
2019-01-15T23:06:06.452Z,6.03
2019-01-15T23:09:11.433Z,5.80
2019-01-15T23:11:48.430Z,6.10
2019-01-15T23:14:53.790Z,5.83
2019-01-15T23:17:52.694Z,5.37
2019-01-15T23:20:46.735Z,7.40
2019-01-15T23:23:32.030Z,6.33
2019-01-15T23:26:22.433Z,6.23
2019-01-15T23:29:09.406Z,5.53
2019-01-15T23:32:11.840Z,5.77
2019-01-15T23:34:58.233Z,5.77
2019-01-15T23:37:36.356Z,5.13
2019-01-15T23:40:33.060Z,6.20
2019-01-15T23:43:37.985Z,6.20
2019-01-15T23:46:23.938Z,5.63
2019-01-15T23:49:12.187Z,5.63
2019-01-15T23:51:57.700Z,5.40
2019-01-15T23:54:54.791Z,5.20
2019-01-15T23:57:45.737Z,6.10
